sensor_id;sensor_type;location;lat;lon;timestamp;pressure;altitude;pressure_sealevel;temperature;humidity
19736;BME280;32064;49.310;8.646;2023-03-03T00:00:35;100821.88;;;7.05;56.37
19736;BME280;32064;49.310;8.646;2023-03-03T00:03:03;100824.66;;;7.02;56.33
19736;BME280;32064;49.310;8.646;2023-03-03T00:05:31;100828.16;;;7.02;56.69
19736;BME280;32064;49.310;8.646;2023-03-03T00:07:58;100825.22;;;7.08;56.29
19736;BME280;32064;49.310;8.646;2023-03-03T00:10:23;100829.88;;;7.02;55.67
19736;BME280;32064;49.310;8.646;2023-03-03T00:12:49;100823.19;;;6.96;55.82
19736;BME280;32064;49.310;8.646;2023-03-03T00:15:21;100827.41;;;6.98;56.74
19736;BME280;32064;49.310;8.646;2023-03-03T00:17:47;100824.66;;;7.02;56.72
19736;BME280;32064;49.310;8.646;2023-03-03T00:20:30;100826.28;;;7.04;56.52
19736;BME280;32064;49.310;8.646;2023-03-03T00:22:59;100829.03;;;7.01;55.49
19736;BME280;32064;49.310;8.646;2023-03-03T00:25:30;100828.56;;;6.93;56.90
19736;BME280;32064;49.310;8.646;2023-03-03T00:28:23;100823.44;;;6.91;56.58
19736;BME280;32064;49.310;8.646;2023-03-03T00:30:50;100824.31;;;6.90;56.87
19736;BME280;32064;49.310;8.646;2023-03-03T00:36:05;100834.63;;;6.93;56.02
19736;BME280;32064;49.310;8.646;2023-03-03T00:38:34;100838.34;;;6.89;56.32
19736;BME280;32064;49.310;8.646;2023-03-03T00:41:01;100840.31;;;6.84;56.99
19736;BME280;32064;49.310;8.646;2023-03-03T00:43:34;100838.63;;;6.83;55.54
19736;BME280;32064;49.310;8.646;2023-03-03T00:46:00;100838.09;;;6.77;55.48
19736;BME280;32064;49.310;8.646;2023-03-03T00:48:38;100832.22;;;6.71;56.71
19736;BME280;32064;49.310;8.646;2023-03-03T00:51:29;100841.19;;;6.66;57.49
19736;BME280;32064;49.310;8.646;2023-03-03T00:53:56;100836.81;;;6.66;56.63
19736;BME280;32064;49.310;8.646;2023-03-03T00:56:22;100835.31;;;6.61;57.02
19736;BME280;32064;49.310;8.646;2023-03-03T00:58:48;100844.31;;;6.55;56.68
19736;BME280;32064;49.310;8.646;2023-03-03T01:01:15;100847.06;;;6.52;57.43
19736;BME280;32064;49.310;8.646;2023-03-03T01:03:41;100846.34;;;6.48;55.83
19736;BME280;32064;49.310;8.646;2023-03-03T01:06:07;100839.50;;;6.46;56.25
19736;BME280;32064;49.310;8.646;2023-03-03T01:08:33;100840.41;;;6.45;56.57
19736;BME280;32064;49.310;8.646;2023-03-03T01:11:03;100844.50;;;6.32;57.59
19736;BME280;32064;49.310;8.646;2023-03-03T01:13:32;100839.34;;;6.30;57.21
19736;BME280;32064;49.310;8.646;2023-03-03T01:16:00;100838.19;;;6.17;57.69
19736;BME280;32064;49.310;8.646;2023-03-03T01:18:26;100827.22;;;6.08;57.09
19736;BME280;32064;49.310;8.646;2023-03-03T01:20:52;100835.94;;;6.09;57.24
19736;BME280;32064;49.310;8.646;2023-03-03T01:23:17;100839.41;;;6.10;56.08
19736;BME280;32064;49.310;8.646;2023-03-03T01:25:43;100836.78;;;6.10;56.78
19736;BME280;32064;49.310;8.646;2023-03-03T01:28:08;100838.59;;;6.07;57.05
19736;BME280;32064;49.310;8.646;2023-03-03T01:30:34;100841.44;;;6.03;57.35
19736;BME280;32064;49.310;8.646;2023-03-03T01:33:00;100840.69;;;5.99;57.23
19736;BME280;32064;49.310;8.646;2023-03-03T01:35:25;100840.84;;;5.96;56.56
19736;BME280;32064;49.310;8.646;2023-03-03T01:37:51;100840.97;;;5.93;57.59
19736;BME280;32064;49.310;8.646;2023-03-03T01:40:23;100838.78;;;5.82;57.34
19736;BME280;32064;49.310;8.646;2023-03-03T01:42:49;100838.50;;;5.70;57.27
19736;BME280;32064;49.310;8.646;2023-03-03T01:45:27;100834.78;;;5.55;57.94
19736;BME280;32064;49.310;8.646;2023-03-03T01:48:00;100836.19;;;5.62;58.38
19736;BME280;32064;49.310;8.646;2023-03-03T01:50:33;100833.53;;;5.63;58.34
19736;BME280;32064;49.310;8.646;2023-03-03T01:53:03;100837.63;;;5.49;58.62
19736;BME280;32064;49.310;8.646;2023-03-03T01:55:34;100832.47;;;5.47;58.33
19736;BME280;32064;49.310;8.646;2023-03-03T01:58:13;100835.81;;;5.51;56.87
19736;BME280;32064;49.310;8.646;2023-03-03T02:00:41;100835.09;;;5.47;58.21
19736;BME280;32064;49.310;8.646;2023-03-03T02:03:09;100834.44;;;5.42;57.03
19736;BME280;32064;49.310;8.646;2023-03-03T02:05:35;100843.31;;;5.38;57.04
19736;BME280;32064;49.310;8.646;2023-03-03T02:08:01;100838.16;;;5.14;58.30
19736;BME280;32064;49.310;8.646;2023-03-03T02:10:27;100838.38;;;5.10;59.13
19736;BME280;32064;49.310;8.646;2023-03-03T02:12:55;100842.41;;;5.17;57.67
19736;BME280;32064;49.310;8.646;2023-03-03T02:15:27;100832.94;;;5.14;59.19
19736;BME280;32064;49.310;8.646;2023-03-03T02:17:55;100833.19;;;5.08;58.71
19736;BME280;32064;49.310;8.646;2023-03-03T02:28:24;100837.41;;;5.12;58.23
19736;BME280;32064;49.310;8.646;2023-03-03T02:30:54;100833.06;;;5.11;59.00
19736;BME280;32064;49.310;8.646;2023-03-03T02:33:20;100827.94;;;5.10;57.87
19736;BME280;32064;49.310;8.646;2023-03-03T02:35:45;100831.84;;;4.98;59.41
19736;BME280;32064;49.310;8.646;2023-03-03T02:38:13;100827.44;;;5.00;58.20
19736;BME280;32064;49.310;8.646;2023-03-03T02:40:59;100840.47;;;5.00;58.23
19736;BME280;32064;49.310;8.646;2023-03-03T02:44:04;100836.97;;;5.01;59.97
19736;BME280;32064;49.310;8.646;2023-03-03T02:46:38;100830.88;;;5.01;59.34
19736;BME280;32064;49.310;8.646;2023-03-03T02:49:05;100836.44;;;4.93;59.03
19736;BME280;32064;49.310;8.646;2023-03-03T02:51:31;100837.81;;;4.80;58.41
19736;BME280;32064;49.310;8.646;2023-03-03T02:53:57;100828.19;;;4.82;58.98
19736;BME280;32064;49.310;8.646;2023-03-03T02:56:23;100837.81;;;4.80;59.40
19736;BME280;32064;49.310;8.646;2023-03-03T02:58:48;100829.06;;;4.81;59.22
19736;BME280;32064;49.310;8.646;2023-03-03T03:01:14;100837.56;;;4.86;59.27
19736;BME280;32064;49.310;8.646;2023-03-03T03:03:39;100831.69;;;4.81;58.60
19736;BME280;32064;49.310;8.646;2023-03-03T03:06:05;100834.28;;;4.81;58.40
19736;BME280;32064;49.310;8.646;2023-03-03T03:08:30;100840.41;;;4.80;57.95
19736;BME280;32064;49.310;8.646;2023-03-03T03:10:56;100835.34;;;4.77;59.52
19736;BME280;32064;49.310;8.646;2023-03-03T03:13:22;100831.13;;;4.72;58.82
19736;BME280;32064;49.310;8.646;2023-03-03T03:15:48;100823.38;;;4.71;58.89
19736;BME280;32064;49.310;8.646;2023-03-03T03:18:14;100828.47;;;4.74;58.88
19736;BME280;32064;49.310;8.646;2023-03-03T03:20:40;100832.78;;;4.75;59.61
19736;BME280;32064;49.310;8.646;2023-03-03T03:23:07;100844.22;;;4.71;59.45
19736;BME280;32064;49.310;8.646;2023-03-03T03:25:33;100828.00;;;4.64;59.45
19736;BME280;32064;49.310;8.646;2023-03-03T03:27:58;100830.09;;;4.55;59.43
19736;BME280;32064;49.310;8.646;2023-03-03T03:30:24;100834.34;;;4.57;58.92
19736;BME280;32064;49.310;8.646;2023-03-03T03:32:49;100845.56;;;4.59;59.69
19736;BME280;32064;49.310;8.646;2023-03-03T03:35:15;100843.13;;;4.55;58.68
19736;BME280;32064;49.310;8.646;2023-03-03T03:37:42;100845.03;;;4.49;58.36
19736;BME280;32064;49.310;8.646;2023-03-03T03:40:08;100852.19;;;4.44;60.22
19736;BME280;32064;49.310;8.646;2023-03-03T03:42:34;100846.97;;;4.44;59.84
19736;BME280;32064;49.310;8.646;2023-03-03T03:44:59;100847.72;;;4.48;60.14
19736;BME280;32064;49.310;8.646;2023-03-03T03:47:24;100845.34;;;4.42;59.13
19736;BME280;32064;49.310;8.646;2023-03-03T03:49:50;100843.72;;;4.39;59.24
19736;BME280;32064;49.310;8.646;2023-03-03T03:52:15;100853.78;;;4.48;60.05
19736;BME280;32064;49.310;8.646;2023-03-03T03:54:41;100857.28;;;4.47;58.79
19736;BME280;32064;49.310;8.646;2023-03-03T03:57:06;100857.28;;;4.47;58.59
19736;BME280;32064;49.310;8.646;2023-03-03T03:59:32;100859.94;;;4.46;58.80
19736;BME280;32064;49.310;8.646;2023-03-03T04:01:57;100853.28;;;4.39;60.12
19736;BME280;32064;49.310;8.646;2023-03-03T04:04:23;100854.25;;;4.36;59.42
19736;BME280;32064;49.310;8.646;2023-03-03T04:06:48;100855.88;;;4.39;60.08
19736;BME280;32064;49.310;8.646;2023-03-03T04:09:14;100846.34;;;4.38;59.73
19736;BME280;32064;49.310;8.646;2023-03-03T04:11:40;100843.63;;;4.41;60.59
19736;BME280;32064;49.310;8.646;2023-03-03T04:14:06;100854.69;;;4.47;58.78
19736;BME280;32064;49.310;8.646;2023-03-03T04:16:31;100855.66;;;4.45;60.21
19736;BME280;32064;49.310;8.646;2023-03-03T04:18:57;100860.00;;;4.44;60.11
19736;BME280;32064;49.310;8.646;2023-03-03T04:21:23;100852.41;;;4.38;60.61
19736;BME280;32064;49.310;8.646;2023-03-03T04:23:49;100860.41;;;4.34;60.41
19736;BME280;32064;49.310;8.646;2023-03-03T04:26:14;100858.75;;;4.31;60.55
19736;BME280;32064;49.310;8.646;2023-03-03T04:28:40;100863.97;;;4.31;59.29
19736;BME280;32064;49.310;8.646;2023-03-03T04:31:05;100858.69;;;4.33;58.74
19736;BME280;32064;49.310;8.646;2023-03-03T04:33:31;100857.16;;;4.27;59.31
19736;BME280;32064;49.310;8.646;2023-03-03T04:35:56;100855.69;;;4.20;59.50
19736;BME280;32064;49.310;8.646;2023-03-03T04:38:22;100857.63;;;4.15;59.97
19736;BME280;32064;49.310;8.646;2023-03-03T04:40:47;100851.69;;;4.11;60.09
19736;BME280;32064;49.310;8.646;2023-03-03T04:43:13;100861.28;;;4.09;60.32
19736;BME280;32064;49.310;8.646;2023-03-03T04:45:38;100860.34;;;4.12;59.23
19736;BME280;32064;49.310;8.646;2023-03-03T04:48:04;100859.53;;;4.10;59.06
19736;BME280;32064;49.310;8.646;2023-03-03T04:50:30;100864.22;;;4.00;60.01
19736;BME280;32064;49.310;8.646;2023-03-03T04:52:55;100869.47;;;3.98;58.88
19736;BME280;32064;49.310;8.646;2023-03-03T04:55:21;100857.50;;;3.94;59.50
19736;BME280;32064;49.310;8.646;2023-03-03T04:57:46;100874.06;;;3.92;60.38
19736;BME280;32064;49.310;8.646;2023-03-03T05:00:12;100873.13;;;3.93;60.23
19736;BME280;32064;49.310;8.646;2023-03-03T05:02:39;100881.25;;;3.85;58.94
19736;BME280;32064;49.310;8.646;2023-03-03T05:05:06;100888.34;;;3.80;59.19
19736;BME280;32064;49.310;8.646;2023-03-03T05:07:32;100882.38;;;3.76;59.87
19736;BME280;32064;49.310;8.646;2023-03-03T05:09:57;100886.72;;;3.76;60.12
19736;BME280;32064;49.310;8.646;2023-03-03T05:12:23;100890.25;;;3.75;60.07
19736;BME280;32064;49.310;8.646;2023-03-03T05:14:48;100889.41;;;3.74;59.78
19736;BME280;32064;49.310;8.646;2023-03-03T05:17:14;100890.28;;;3.73;60.08
19736;BME280;32064;49.310;8.646;2023-03-03T05:19:39;100888.69;;;3.69;59.57
19736;BME280;32064;49.310;8.646;2023-03-03T05:22:05;100893.16;;;3.66;59.35
19736;BME280;32064;49.310;8.646;2023-03-03T05:24:30;100892.72;;;3.53;60.71
19736;BME280;32064;49.310;8.646;2023-03-03T05:26:56;100890.94;;;3.53;59.87
19736;BME280;32064;49.310;8.646;2023-03-03T05:29:21;100897.81;;;3.56;60.29
19736;BME280;32064;49.310;8.646;2023-03-03T05:31:46;100906.41;;;3.58;59.63
19736;BME280;32064;49.310;8.646;2023-03-03T05:34:12;100914.44;;;3.52;60.65
19736;BME280;32064;49.310;8.646;2023-03-03T05:36:37;100920.72;;;3.45;60.77
19736;BME280;32064;49.310;8.646;2023-03-03T05:39:03;100920.69;;;3.46;59.93
19736;BME280;32064;49.310;8.646;2023-03-03T05:41:28;100913.69;;;3.48;60.20
19736;BME280;32064;49.310;8.646;2023-03-03T05:43:54;100929.31;;;3.47;59.73
19736;BME280;32064;49.310;8.646;2023-03-03T05:46:19;100929.53;;;3.41;60.39
19736;BME280;32064;49.310;8.646;2023-03-03T05:48:45;100927.91;;;3.36;60.93
19736;BME280;32064;49.310;8.646;2023-03-03T05:51:10;100930.50;;;3.36;59.84
19736;BME280;32064;49.310;8.646;2023-03-03T05:53:36;100926.25;;;3.34;60.91
19736;BME280;32064;49.310;8.646;2023-03-03T05:56:01;100932.16;;;3.39;59.97
19736;BME280;32064;49.310;8.646;2023-03-03T05:58:27;100935.66;;;3.38;60.70
19736;BME280;32064;49.310;8.646;2023-03-03T06:00:52;100946.00;;;3.40;60.61
19736;BME280;32064;49.310;8.646;2023-03-03T06:03:17;100946.78;;;3.43;59.75
19736;BME280;32064;49.310;8.646;2023-03-03T06:05:43;100956.41;;;3.40;59.91
19736;BME280;32064;49.310;8.646;2023-03-03T06:08:08;100956.69;;;3.30;59.85
19736;BME280;32064;49.310;8.646;2023-03-03T06:10:34;100950.78;;;3.25;60.75
19736;BME280;32064;49.310;8.646;2023-03-03T06:12:59;100951.56;;;3.29;60.81
19736;BME280;32064;49.310;8.646;2023-03-03T06:15:25;100946.25;;;3.32;60.57
19736;BME280;32064;49.310;8.646;2023-03-03T06:17:50;100948.66;;;3.38;60.62
19736;BME280;32064;49.310;8.646;2023-03-03T06:20:16;100955.53;;;3.41;59.88
19736;BME280;32064;49.310;8.646;2023-03-03T06:22:41;100958.06;;;3.42;60.44
19736;BME280;32064;49.310;8.646;2023-03-03T06:25:07;100952.94;;;3.41;59.97
19736;BME280;32064;49.310;8.646;2023-03-03T06:27:33;100952.06;;;3.40;60.75
19736;BME280;32064;49.310;8.646;2023-03-03T06:29:58;100945.31;;;3.34;60.79
19736;BME280;32064;49.310;8.646;2023-03-03T06:32:24;100946.00;;;3.40;60.65
19736;BME280;32064;49.310;8.646;2023-03-03T06:34:49;100958.66;;;3.50;59.66
19736;BME280;32064;49.310;8.646;2023-03-03T06:37:15;100957.59;;;3.57;60.28
19736;BME280;32064;49.310;8.646;2023-03-03T06:39:40;100957.03;;;3.48;60.06
19736;BME280;32064;49.310;8.646;2023-03-03T06:42:06;100961.47;;;3.44;60.90
19736;BME280;32064;49.310;8.646;2023-03-03T06:44:34;100960.31;;;3.53;60.00
19736;BME280;32064;49.310;8.646;2023-03-03T06:47:00;100957.28;;;3.67;60.73
19736;BME280;32064;49.310;8.646;2023-03-03T06:49:26;100970.75;;;3.79;59.82
19736;BME280;32064;49.310;8.646;2023-03-03T06:51:52;100962.59;;;4.40;58.12
19736;BME280;32064;49.310;8.646;2023-03-03T06:54:24;100970.38;;;4.65;58.32
19736;BME280;32064;49.310;8.646;2023-03-03T06:56:55;100966.78;;;4.44;58.66
19736;BME280;32064;49.310;8.646;2023-03-03T06:59:22;100963.66;;;4.35;60.17
19736;BME280;32064;49.310;8.646;2023-03-03T07:01:49;100971.03;;;4.47;59.99
19736;BME280;32064;49.310;8.646;2023-03-03T07:04:31;100970.91;;;6.29;57.73
19736;BME280;32064;49.310;8.646;2023-03-03T07:07:06;100989.16;;;7.46;54.01
19736;BME280;32064;49.310;8.646;2023-03-03T07:09:32;100990.63;;;8.40;52.91
19736;BME280;32064;49.310;8.646;2023-03-03T07:12:08;100984.09;;;9.13;52.05
19736;BME280;32064;49.310;8.646;2023-03-03T07:14:39;100990.53;;;9.71;50.51
19736;BME280;32064;49.310;8.646;2023-03-03T07:17:14;100990.63;;;10.00;50.46
19736;BME280;32064;49.310;8.646;2023-03-03T07:19:41;100992.94;;;10.20;50.93
19736;BME280;32064;49.310;8.646;2023-03-03T07:22:14;100996.03;;;10.71;48.54
19736;BME280;32064;49.310;8.646;2023-03-03T07:24:41;100996.19;;;11.11;49.92
19736;BME280;32064;49.310;8.646;2023-03-03T07:27:23;101001.13;;;9.70;50.94
19736;BME280;32064;49.310;8.646;2023-03-03T07:29:50;100996.34;;;8.97;52.40
19736;BME280;32064;49.310;8.646;2023-03-03T07:32:39;101010.06;;;8.18;54.54
19736;BME280;32064;49.310;8.646;2023-03-03T07:35:40;101017.53;;;7.72;54.89
19736;BME280;32064;49.310;8.646;2023-03-03T07:40:50;101009.38;;;7.04;55.81
19736;BME280;32064;49.310;8.646;2023-03-03T07:43:29;101019.84;;;6.85;56.22
19736;BME280;32064;49.310;8.646;2023-03-03T07:48:36;101023.53;;;6.61;57.69
19736;BME280;32064;49.310;8.646;2023-03-03T07:51:17;101027.44;;;6.50;58.95
19736;BME280;32064;49.310;8.646;2023-03-03T07:53:43;101025.19;;;6.43;58.33
19736;BME280;32064;49.310;8.646;2023-03-03T07:56:30;101031.25;;;6.43;59.29
19736;BME280;32064;49.310;8.646;2023-03-03T07:58:58;101030.84;;;6.52;58.68
19736;BME280;32064;49.310;8.646;2023-03-03T08:01:36;101034.25;;;6.55;57.48
19736;BME280;32064;49.310;8.646;2023-03-03T08:06:59;101031.66;;;6.73;56.46
19736;BME280;32064;49.310;8.646;2023-03-03T08:09:36;101030.63;;;6.78;57.18
19736;BME280;32064;49.310;8.646;2023-03-03T08:14:36;101027.63;;;8.33;54.26
19736;BME280;32064;49.310;8.646;2023-03-03T08:17:06;101027.44;;;10.30;50.62
19736;BME280;32064;49.310;8.646;2023-03-03T08:19:38;101028.88;;;11.77;48.45
19736;BME280;32064;49.310;8.646;2023-03-03T08:22:38;101024.63;;;13.06;45.80
19736;BME280;32064;49.310;8.646;2023-03-03T08:25:04;101034.66;;;13.87;45.36
19736;BME280;32064;49.310;8.646;2023-03-03T08:27:29;101041.72;;;14.81;44.54
19736;BME280;32064;49.310;8.646;2023-03-03T08:29:55;101035.56;;;14.69;44.84
19736;BME280;32064;49.310;8.646;2023-03-03T08:32:20;101040.47;;;15.53;43.55
19736;BME280;32064;49.310;8.646;2023-03-03T08:34:46;101044.13;;;16.16;42.33
19736;BME280;32064;49.310;8.646;2023-03-03T08:37:11;101049.41;;;16.48;42.65
19736;BME280;32064;49.310;8.646;2023-03-03T08:39:37;101048.19;;;16.73;42.90
19736;BME280;32064;49.310;8.646;2023-03-03T08:42:03;101045.59;;;17.14;40.95
19736;BME280;32064;49.310;8.646;2023-03-03T08:44:28;101045.72;;;17.62;39.98
19736;BME280;32064;49.310;8.646;2023-03-03T08:46:53;101047.16;;;17.16;41.57
19736;BME280;32064;49.310;8.646;2023-03-03T08:49:20;101043.19;;;17.51;41.05
19736;BME280;32064;49.310;8.646;2023-03-03T08:51:45;101036.97;;;17.41;40.51
19736;BME280;32064;49.310;8.646;2023-03-03T08:54:11;101049.66;;;17.68;40.42
19736;BME280;32064;49.310;8.646;2023-03-03T08:56:36;101056.31;;;16.19;40.36
19736;BME280;32064;49.310;8.646;2023-03-03T08:59:02;101050.34;;;14.72;42.67
19736;BME280;32064;49.310;8.646;2023-03-03T09:01:27;101053.09;;;13.52;43.77
19736;BME280;32064;49.310;8.646;2023-03-03T09:03:53;101046.91;;;13.01;45.29
19736;BME280;32064;49.310;8.646;2023-03-03T09:06:19;101045.28;;;13.24;45.07
19736;BME280;32064;49.310;8.646;2023-03-03T09:08:44;101047.44;;;13.32;44.02
19736;BME280;32064;49.310;8.646;2023-03-03T09:11:13;101049.47;;;12.77;45.12
19736;BME280;32064;49.310;8.646;2023-03-03T09:13:39;101040.81;;;13.01;44.87
19736;BME280;32064;49.310;8.646;2023-03-03T09:16:13;101043.44;;;13.27;43.89
19736;BME280;32064;49.310;8.646;2023-03-03T09:18:39;101042.38;;;13.90;43.89
19736;BME280;32064;49.310;8.646;2023-03-03T09:21:18;101049.03;;;14.77;41.79
19736;BME280;32064;49.310;8.646;2023-03-03T09:23:56;101055.22;;;13.46;42.84
19736;BME280;32064;49.310;8.646;2023-03-03T09:26:29;101059.47;;;12.59;44.19
19736;BME280;32064;49.310;8.646;2023-03-03T09:29:27;101061.53;;;12.16;45.77
19736;BME280;32064;49.310;8.646;2023-03-03T09:32:00;101061.09;;;13.00;44.69
19736;BME280;32064;49.310;8.646;2023-03-03T09:37:17;101061.19;;;16.34;40.18
19736;BME280;32064;49.310;8.646;2023-03-03T09:39:51;101066.84;;;17.54;40.20
19736;BME280;32064;49.310;8.646;2023-03-03T09:53:41;101066.47;;;20.31;34.05
19736;BME280;32064;49.310;8.646;2023-03-03T09:56:18;101073.03;;;21.07;34.77
19736;BME280;32064;49.310;8.646;2023-03-03T10:01:35;101068.56;;;21.16;33.29
19736;BME280;32064;49.310;8.646;2023-03-03T10:07:22;101060.69;;;22.24;33.43
19736;BME280;32064;49.310;8.646;2023-03-03T10:10:17;101062.00;;;22.44;31.90
19736;BME280;32064;49.310;8.646;2023-03-03T10:13:06;101064.50;;;22.13;32.33
19736;BME280;32064;49.310;8.646;2023-03-03T10:18:37;101063.03;;;22.18;33.10
19736;BME280;32064;49.310;8.646;2023-03-03T10:21:23;101070.56;;;22.23;33.08
19736;BME280;32064;49.310;8.646;2023-03-03T10:29:20;101069.16;;;23.01;31.45
19736;BME280;32064;49.310;8.646;2023-03-03T10:31:52;101077.03;;;22.86;31.55
19736;BME280;32064;49.310;8.646;2023-03-03T10:40:08;101087.50;;;22.40;30.29
19736;BME280;32064;49.310;8.646;2023-03-03T10:57:23;101062.25;;;21.67;31.13
19736;BME280;32064;49.310;8.646;2023-03-03T11:05:34;101056.81;;;22.18;31.45
19736;BME280;32064;49.310;8.646;2023-03-03T11:08:10;101064.19;;;22.65;31.10
19736;BME280;32064;49.310;8.646;2023-03-03T11:21:34;101059.34;;;23.24;31.12
19736;BME280;32064;49.310;8.646;2023-03-03T11:29:47;101065.25;;;23.51;29.01
19736;BME280;32064;49.310;8.646;2023-03-03T11:32:31;101064.50;;;23.73;29.05
19736;BME280;32064;49.310;8.646;2023-03-03T11:35:16;101059.91;;;24.05;29.22
19736;BME280;32064;49.310;8.646;2023-03-03T11:40:44;101054.06;;;23.79;28.89
19736;BME280;32064;49.310;8.646;2023-03-03T11:43:28;101041.19;;;24.35;28.44
19736;BME280;32064;49.310;8.646;2023-03-03T11:46:04;101046.63;;;24.64;28.92
19736;BME280;32064;49.310;8.646;2023-03-03T11:48:41;101048.19;;;24.21;27.68
19736;BME280;32064;49.310;8.646;2023-03-03T11:57:22;101029.03;;;23.47;28.30
19736;BME280;32064;49.310;8.646;2023-03-03T12:00:17;101022.97;;;23.99;29.00
19736;BME280;32064;49.310;8.646;2023-03-03T12:02:56;101022.09;;;24.45;28.32
19736;BME280;32064;49.310;8.646;2023-03-03T12:05:41;101012.19;;;24.45;28.45
19736;BME280;32064;49.310;8.646;2023-03-03T12:08:27;101019.81;;;24.18;27.69
19736;BME280;32064;49.310;8.646;2023-03-03T12:11:08;101015.84;;;24.29;28.15
19736;BME280;32064;49.310;8.646;2023-03-03T12:19:14;101023.72;;;23.62;26.79
19736;BME280;32064;49.310;8.646;2023-03-03T12:25:07;101009.25;;;23.94;27.91
19736;BME280;32064;49.310;8.646;2023-03-03T12:30:48;101016.91;;;23.51;28.91
19736;BME280;32064;49.310;8.646;2023-03-03T12:41:39;101001.81;;;23.50;29.21
19736;BME280;32064;49.310;8.646;2023-03-03T12:44:16;101002.59;;;23.59;28.55
19736;BME280;32064;49.310;8.646;2023-03-03T12:46:50;100998.41;;;23.25;28.41
19736;BME280;32064;49.310;8.646;2023-03-03T12:49:19;100990.59;;;23.38;29.22
19736;BME280;32064;49.310;8.646;2023-03-03T12:54:34;100973.88;;;22.97;29.43
19736;BME280;32064;49.310;8.646;2023-03-03T12:57:26;100973.19;;;23.03;28.55
19736;BME280;32064;49.310;8.646;2023-03-03T13:02:42;100969.66;;;23.02;29.32
19736;BME280;32064;49.310;8.646;2023-03-03T13:05:32;100971.88;;;22.99;29.10
19736;BME280;32064;49.310;8.646;2023-03-03T13:14:14;100978.34;;;23.75;28.61
19736;BME280;32064;49.310;8.646;2023-03-03T13:16:57;100971.66;;;23.63;29.47
19736;BME280;32064;49.310;8.646;2023-03-03T13:19:32;100968.44;;;23.13;29.16
19736;BME280;32064;49.310;8.646;2023-03-03T13:22:07;100980.78;;;22.83;30.27
19736;BME280;32064;49.310;8.646;2023-03-03T13:27:44;100968.16;;;22.28;30.24
19736;BME280;32064;49.310;8.646;2023-03-03T13:30:19;100965.84;;;22.08;29.96
19736;BME280;32064;49.310;8.646;2023-03-03T13:33:21;100954.19;;;21.34;30.67
19736;BME280;32064;49.310;8.646;2023-03-03T13:35:53;100961.28;;;21.43;30.97
19736;BME280;32064;49.310;8.646;2023-03-03T13:38:32;100960.03;;;21.21;31.06
19736;BME280;32064;49.310;8.646;2023-03-03T13:43:45;100960.81;;;21.14;31.17
19736;BME280;32064;49.310;8.646;2023-03-03T13:49:22;100948.00;;;20.23;31.11
19736;BME280;32064;49.310;8.646;2023-03-03T13:52:04;100948.47;;;19.74;32.73
19736;BME280;32064;49.310;8.646;2023-03-03T14:03:15;100935.66;;;20.04;32.31
19736;BME280;32064;49.310;8.646;2023-03-03T14:05:44;100937.09;;;19.72;32.49
19736;BME280;32064;49.310;8.646;2023-03-03T14:14:02;100923.69;;;19.36;33.51
19736;BME280;32064;49.310;8.646;2023-03-03T14:19:29;100928.81;;;19.12;33.25
19736;BME280;32064;49.310;8.646;2023-03-03T14:25:00;100918.91;;;18.67;32.85
19736;BME280;32064;49.310;8.646;2023-03-03T14:27:34;100919.75;;;18.20;33.09
19736;BME280;32064;49.310;8.646;2023-03-03T14:30:27;100915.19;;;17.64;33.91
19736;BME280;32064;49.310;8.646;2023-03-03T14:35:47;100917.69;;;17.07;35.54
19736;BME280;32064;49.310;8.646;2023-03-03T14:38:19;100912.75;;;16.62;35.17
19736;BME280;32064;49.310;8.646;2023-03-03T14:40:47;100902.75;;;16.45;35.34
19736;BME280;32064;49.310;8.646;2023-03-03T14:43:21;100894.97;;;16.22;36.34
19736;BME280;32064;49.310;8.646;2023-03-03T14:45:48;100901.09;;;16.23;35.69
19736;BME280;32064;49.310;8.646;2023-03-03T14:48:17;100902.66;;;16.04;35.79
19736;BME280;32064;49.310;8.646;2023-03-03T14:50:49;100904.88;;;15.78;36.91
19736;BME280;32064;49.310;8.646;2023-03-03T14:55:46;100904.53;;;15.39;37.57
19736;BME280;32064;49.310;8.646;2023-03-03T15:00:49;100894.25;;;15.14;37.89
19736;BME280;32064;49.310;8.646;2023-03-03T15:03:21;100899.69;;;15.12;38.45
19736;BME280;32064;49.310;8.646;2023-03-03T15:05:54;100894.16;;;15.04;37.89
19736;BME280;32064;49.310;8.646;2023-03-03T15:08:32;100904.03;;;15.02;38.80
19736;BME280;32064;49.310;8.646;2023-03-03T15:11:25;100903.94;;;14.92;39.18
19736;BME280;32064;49.310;8.646;2023-03-03T15:13:52;100892.47;;;14.92;38.61
19736;BME280;32064;49.310;8.646;2023-03-03T15:16:31;100891.41;;;14.83;38.24
19736;BME280;32064;49.310;8.646;2023-03-03T15:19:32;100894.81;;;14.63;38.70
19736;BME280;32064;49.310;8.646;2023-03-03T15:22:32;100894.56;;;14.54;38.95
19736;BME280;32064;49.310;8.646;2023-03-03T15:25:13;100892.53;;;14.47;38.94
19736;BME280;32064;49.310;8.646;2023-03-03T15:30:50;100884.69;;;14.34;39.41
19736;BME280;32064;49.310;8.646;2023-03-03T15:36:20;100894.53;;;14.21;40.10
19736;BME280;32064;49.310;8.646;2023-03-03T15:41:36;100883.81;;;14.00;40.40
19736;BME280;32064;49.310;8.646;2023-03-03T15:44:10;100894.63;;;13.97;40.05
19736;BME280;32064;49.310;8.646;2023-03-03T15:49:17;100892.94;;;13.96;39.48
19736;BME280;32064;49.310;8.646;2023-03-03T15:51:58;100898.34;;;13.94;39.90
19736;BME280;32064;49.310;8.646;2023-03-03T15:54:48;100897.13;;;13.87;40.29
19736;BME280;32064;49.310;8.646;2023-03-03T16:00:36;100885.63;;;13.64;41.36
19736;BME280;32064;49.310;8.646;2023-03-03T16:03:19;100894.63;;;13.61;40.57
19736;BME280;32064;49.310;8.646;2023-03-03T16:05:54;100895.22;;;13.54;40.73
19736;BME280;32064;49.310;8.646;2023-03-03T16:08:42;100902.28;;;13.42;41.04
19736;BME280;32064;49.310;8.646;2023-03-03T16:11:21;100898.28;;;13.36;41.89
19736;BME280;32064;49.310;8.646;2023-03-03T16:14:00;100907.06;;;13.24;42.03
19736;BME280;32064;49.310;8.646;2023-03-03T16:16:46;100898.00;;;13.15;41.20
19736;BME280;32064;49.310;8.646;2023-03-03T16:19:21;100903.84;;;13.08;42.37